sensor_id;sensor_type;location;lat;lon;timestamp;P1;durP1;ratioP1;P2;durP2;ratioP2
75073;SDS011;63652;51.526;5.080;2023-07-29T00:00:30;14.10;;;5.13;;
75073;SDS011;63652;51.526;5.080;2023-07-29T00:02:55;8.13;;;4.55;;
75073;SDS011;63652;51.526;5.080;2023-07-29T00:05:21;8.00;;;4.75;;
75073;SDS011;63652;51.526;5.080;2023-07-29T00:07:46;10.00;;;4.28;;
75073;SDS011;63652;51.526;5.080;2023-07-29T00:10:11;6.90;;;3.80;;
75073;SDS011;63652;51.526;5.080;2023-07-29T00:12:37;9.93;;;4.70;;
75073;SDS011;63652;51.526;5.080;2023-07-29T00:15:02;6.82;;;4.25;;
75073;SDS011;63652;51.526;5.080;2023-07-29T00:17:28;6.05;;;3.63;;
75073;SDS011;63652;51.526;5.080;2023-07-29T00:19:53;9.30;;;4.10;;
75073;SDS011;63652;51.526;5.080;2023-07-29T00:22:19;6.75;;;3.95;;
75073;SDS011;63652;51.526;5.080;2023-07-29T00:24:44;8.05;;;3.95;;
75073;SDS011;63652;51.526;5.080;2023-07-29T00:27:09;6.60;;;3.70;;
75073;SDS011;63652;51.526;5.080;2023-07-29T00:29:35;9.15;;;4.72;;
75073;SDS011;63652;51.526;5.080;2023-07-29T00:32:00;9.02;;;4.47;;
75073;SDS011;63652;51.526;5.080;2023-07-29T00:34:26;8.05;;;4.85;;
75073;SDS011;63652;51.526;5.080;2023-07-29T00:36:51;8.55;;;4.53;;
75073;SDS011;63652;51.526;5.080;2023-07-29T00:39:16;8.55;;;4.55;;
75073;SDS011;63652;51.526;5.080;2023-07-29T00:41:42;8.68;;;4.32;;
75073;SDS011;63652;51.526;5.080;2023-07-29T00:44:07;10.52;;;4.97;;
75073;SDS011;63652;51.526;5.080;2023-07-29T00:46:34;7.57;;;4.55;;
75073;SDS011;63652;51.526;5.080;2023-07-29T00:48:59;7.63;;;4.65;;
75073;SDS011;63652;51.526;5.080;2023-07-29T00:51:25;9.18;;;4.47;;
75073;SDS011;63652;51.526;5.080;2023-07-29T00:53:50;8.30;;;4.57;;
75073;SDS011;63652;51.526;5.080;2023-07-29T00:56:16;10.05;;;5.20;;
75073;SDS011;63652;51.526;5.080;2023-07-29T00:58:41;9.95;;;4.97;;
75073;SDS011;63652;51.526;5.080;2023-07-29T01:01:07;8.13;;;4.50;;
75073;SDS011;63652;51.526;5.080;2023-07-29T01:03:33;9.20;;;5.20;;
75073;SDS011;63652;51.526;5.080;2023-07-29T01:06:07;9.73;;;5.35;;
75073;SDS011;63652;51.526;5.080;2023-07-29T01:08:48;8.65;;;5.10;;
75073;SDS011;63652;51.526;5.080;2023-07-29T01:11:24;7.97;;;4.70;;
75073;SDS011;63652;51.526;5.080;2023-07-29T01:16:53;14.68;;;6.28;;
75073;SDS011;63652;51.526;5.080;2023-07-29T01:22:10;12.15;;;6.47;;
75073;SDS011;63652;51.526;5.080;2023-07-29T01:24:37;9.80;;;5.60;;
75073;SDS011;63652;51.526;5.080;2023-07-29T01:27:03;9.65;;;5.72;;
75073;SDS011;63652;51.526;5.080;2023-07-29T01:29:30;8.10;;;5.20;;
75073;SDS011;63652;51.526;5.080;2023-07-29T01:31:56;8.38;;;5.07;;
75073;SDS011;63652;51.526;5.080;2023-07-29T01:34:26;9.27;;;5.07;;
75073;SDS011;63652;51.526;5.080;2023-07-29T01:36:55;7.88;;;4.80;;
75073;SDS011;63652;51.526;5.080;2023-07-29T01:39:22;9.48;;;5.35;;
75073;SDS011;63652;51.526;5.080;2023-07-29T01:41:48;9.65;;;4.30;;
75073;SDS011;63652;51.526;5.080;2023-07-29T01:44:14;8.98;;;4.90;;
75073;SDS011;63652;51.526;5.080;2023-07-29T01:46:40;8.48;;;4.30;;
75073;SDS011;63652;51.526;5.080;2023-07-29T01:49:05;8.52;;;4.40;;
75073;SDS011;63652;51.526;5.080;2023-07-29T01:51:31;8.35;;;3.60;;
75073;SDS011;63652;51.526;5.080;2023-07-29T01:53:56;10.05;;;3.70;;
75073;SDS011;63652;51.526;5.080;2023-07-29T01:56:24;6.35;;;3.10;;
75073;SDS011;63652;51.526;5.080;2023-07-29T01:58:49;6.25;;;3.42;;
75073;SDS011;63652;51.526;5.080;2023-07-29T02:01:14;4.90;;;2.80;;
75073;SDS011;63652;51.526;5.080;2023-07-29T02:03:40;6.38;;;3.20;;
75073;SDS011;63652;51.526;5.080;2023-07-29T02:06:05;5.32;;;2.38;;
75073;SDS011;63652;51.526;5.080;2023-07-29T02:08:31;5.22;;;2.63;;
75073;SDS011;63652;51.526;5.080;2023-07-29T02:10:56;5.38;;;2.83;;
75073;SDS011;63652;51.526;5.080;2023-07-29T02:13:21;5.07;;;2.40;;
75073;SDS011;63652;51.526;5.080;2023-07-29T02:15:47;4.75;;;2.58;;
75073;SDS011;63652;51.526;5.080;2023-07-29T02:18:12;4.60;;;2.22;;
75073;SDS011;63652;51.526;5.080;2023-07-29T02:20:38;4.50;;;2.00;;
75073;SDS011;63652;51.526;5.080;2023-07-29T02:23:03;3.80;;;1.92;;
75073;SDS011;63652;51.526;5.080;2023-07-29T02:25:28;7.32;;;2.10;;
75073;SDS011;63652;51.526;5.080;2023-07-29T02:27:54;3.85;;;1.92;;
75073;SDS011;63652;51.526;5.080;2023-07-29T02:30:20;5.93;;;1.90;;
75073;SDS011;63652;51.526;5.080;2023-07-29T02:32:46;5.10;;;1.83;;
75073;SDS011;63652;51.526;5.080;2023-07-29T02:35:11;4.95;;;2.20;;
75073;SDS011;63652;51.526;5.080;2023-07-29T02:37:37;6.05;;;2.28;;
75073;SDS011;63652;51.526;5.080;2023-07-29T02:40:02;3.83;;;1.92;;
75073;SDS011;63652;51.526;5.080;2023-07-29T02:42:28;3.90;;;2.03;;
75073;SDS011;63652;51.526;5.080;2023-07-29T02:44:54;5.60;;;2.63;;
75073;SDS011;63652;51.526;5.080;2023-07-29T02:47:19;4.70;;;2.08;;
75073;SDS011;63652;51.526;5.080;2023-07-29T02:49:45;4.45;;;1.98;;
75073;SDS011;63652;51.526;5.080;2023-07-29T02:52:10;5.50;;;2.00;;
75073;SDS011;63652;51.526;5.080;2023-07-29T02:54:35;4.45;;;2.08;;
75073;SDS011;63652;51.526;5.080;2023-07-29T02:57:01;4.47;;;2.25;;
75073;SDS011;63652;51.526;5.080;2023-07-29T02:59:26;6.45;;;2.15;;
75073;SDS011;63652;51.526;5.080;2023-07-29T03:01:52;5.60;;;2.47;;
75073;SDS011;63652;51.526;5.080;2023-07-29T03:04:18;10.43;;;2.83;;
75073;SDS011;63652;51.526;5.080;2023-07-29T03:06:43;5.88;;;2.80;;
75073;SDS011;63652;51.526;5.080;2023-07-29T03:09:09;9.65;;;2.90;;
75073;SDS011;63652;51.526;5.080;2023-07-29T03:11:34;6.88;;;2.85;;
75073;SDS011;63652;51.526;5.080;2023-07-29T03:14:00;7.47;;;3.50;;
75073;SDS011;63652;51.526;5.080;2023-07-29T03:16:25;6.35;;;3.38;;
75073;SDS011;63652;51.526;5.080;2023-07-29T03:18:51;6.95;;;3.58;;
75073;SDS011;63652;51.526;5.080;2023-07-29T03:21:16;6.20;;;2.83;;
75073;SDS011;63652;51.526;5.080;2023-07-29T03:23:42;4.95;;;2.85;;
75073;SDS011;63652;51.526;5.080;2023-07-29T03:26:07;8.23;;;3.72;;
75073;SDS011;63652;51.526;5.080;2023-07-29T03:28:36;5.70;;;3.15;;
75073;SDS011;63652;51.526;5.080;2023-07-29T03:33:30;4.93;;;2.38;;
75073;SDS011;63652;51.526;5.080;2023-07-29T03:35:56;6.63;;;2.75;;
75073;SDS011;63652;51.526;5.080;2023-07-29T03:38:21;8.27;;;2.85;;
75073;SDS011;63652;51.526;5.080;2023-07-29T03:40:47;8.82;;;3.60;;
75073;SDS011;63652;51.526;5.080;2023-07-29T03:43:12;5.45;;;2.80;;
75073;SDS011;63652;51.526;5.080;2023-07-29T03:45:38;5.45;;;2.88;;
75073;SDS011;63652;51.526;5.080;2023-07-29T03:48:04;5.65;;;3.25;;
75073;SDS011;63652;51.526;5.080;2023-07-29T03:50:30;5.30;;;2.97;;
75073;SDS011;63652;51.526;5.080;2023-07-29T03:52:55;9.13;;;3.30;;
75073;SDS011;63652;51.526;5.080;2023-07-29T03:55:21;6.72;;;3.25;;
75073;SDS011;63652;51.526;5.080;2023-07-29T03:57:47;6.45;;;2.97;;
75073;SDS011;63652;51.526;5.080;2023-07-29T04:00:12;4.82;;;2.67;;
75073;SDS011;63652;51.526;5.080;2023-07-29T04:02:38;6.63;;;3.25;;
75073;SDS011;63652;51.526;5.080;2023-07-29T04:05:04;5.10;;;3.20;;
75073;SDS011;63652;51.526;5.080;2023-07-29T04:07:31;9.10;;;3.00;;
75073;SDS011;63652;51.526;5.080;2023-07-29T04:09:56;5.68;;;2.65;;
75073;SDS011;63652;51.526;5.080;2023-07-29T04:12:22;6.50;;;2.80;;
75073;SDS011;63652;51.526;5.080;2023-07-29T04:14:48;7.15;;;3.13;;
75073;SDS011;63652;51.526;5.080;2023-07-29T04:17:13;7.13;;;2.80;;
75073;SDS011;63652;51.526;5.080;2023-07-29T04:19:39;6.68;;;3.10;;
75073;SDS011;63652;51.526;5.080;2023-07-29T04:22:04;5.20;;;2.72;;
75073;SDS011;63652;51.526;5.080;2023-07-29T04:24:30;4.60;;;2.50;;
75073;SDS011;63652;51.526;5.080;2023-07-29T04:26:55;7.25;;;3.25;;
75073;SDS011;63652;51.526;5.080;2023-07-29T04:29:21;7.22;;;3.20;;
75073;SDS011;63652;51.526;5.080;2023-07-29T04:31:47;6.43;;;2.92;;
75073;SDS011;63652;51.526;5.080;2023-07-29T04:34:13;6.85;;;2.58;;
75073;SDS011;63652;51.526;5.080;2023-07-29T04:36:39;5.18;;;3.35;;
75073;SDS011;63652;51.526;5.080;2023-07-29T04:39:04;5.25;;;2.58;;
75073;SDS011;63652;51.526;5.080;2023-07-29T04:41:30;7.20;;;3.42;;
75073;SDS011;63652;51.526;5.080;2023-07-29T04:43:55;6.20;;;2.78;;
75073;SDS011;63652;51.526;5.080;2023-07-29T04:46:21;5.53;;;2.38;;
75073;SDS011;63652;51.526;5.080;2023-07-29T04:48:46;4.93;;;2.40;;
75073;SDS011;63652;51.526;5.080;2023-07-29T04:51:11;8.40;;;2.80;;
75073;SDS011;63652;51.526;5.080;2023-07-29T04:53:37;5.78;;;2.47;;
75073;SDS011;63652;51.526;5.080;2023-07-29T04:56:03;5.43;;;2.63;;
75073;SDS011;63652;51.526;5.080;2023-07-29T04:58:28;7.50;;;2.58;;
75073;SDS011;63652;51.526;5.080;2023-07-29T05:00:55;6.10;;;2.45;;
75073;SDS011;63652;51.526;5.080;2023-07-29T05:03:20;8.20;;;3.10;;
75073;SDS011;63652;51.526;5.080;2023-07-29T05:05:46;6.95;;;2.95;;
75073;SDS011;63652;51.526;5.080;2023-07-29T05:08:11;6.68;;;2.45;;
75073;SDS011;63652;51.526;5.080;2023-07-29T05:10:37;5.00;;;2.53;;
75073;SDS011;63652;51.526;5.080;2023-07-29T05:13:02;4.63;;;2.30;;
75073;SDS011;63652;51.526;5.080;2023-07-29T05:15:27;5.05;;;2.40;;
75073;SDS011;63652;51.526;5.080;2023-07-29T05:17:53;5.15;;;2.40;;
75073;SDS011;63652;51.526;5.080;2023-07-29T05:20:18;4.68;;;2.47;;
75073;SDS011;63652;51.526;5.080;2023-07-29T05:22:44;4.68;;;2.13;;
75073;SDS011;63652;51.526;5.080;2023-07-29T05:25:09;6.85;;;2.72;;
75073;SDS011;63652;51.526;5.080;2023-07-29T05:27:34;6.07;;;2.58;;
75073;SDS011;63652;51.526;5.080;2023-07-29T05:30:00;5.32;;;2.83;;
75073;SDS011;63652;51.526;5.080;2023-07-29T05:32:25;5.60;;;3.00;;
75073;SDS011;63652;51.526;5.080;2023-07-29T05:34:51;6.70;;;2.70;;
75073;SDS011;63652;51.526;5.080;2023-07-29T05:37:16;5.82;;;2.42;;
75073;SDS011;63652;51.526;5.080;2023-07-29T05:39:41;4.50;;;2.55;;
75073;SDS011;63652;51.526;5.080;2023-07-29T05:42:07;4.18;;;2.53;;
75073;SDS011;63652;51.526;5.080;2023-07-29T05:44:33;5.28;;;2.83;;
75073;SDS011;63652;51.526;5.080;2023-07-29T05:46:58;4.82;;;2.50;;
75073;SDS011;63652;51.526;5.080;2023-07-29T05:49:24;5.40;;;2.47;;
75073;SDS011;63652;51.526;5.080;2023-07-29T05:51:49;5.90;;;2.35;;
75073;SDS011;63652;51.526;5.080;2023-07-29T05:54:17;6.75;;;2.10;;
75073;SDS011;63652;51.526;5.080;2023-07-29T05:56:43;4.80;;;2.03;;
75073;SDS011;63652;51.526;5.080;2023-07-29T05:59:08;4.90;;;2.17;;
75073;SDS011;63652;51.526;5.080;2023-07-29T06:01:33;4.63;;;2.28;;
75073;SDS011;63652;51.526;5.080;2023-07-29T06:03:59;4.47;;;1.80;;
75073;SDS011;63652;51.526;5.080;2023-07-29T06:06:25;8.70;;;2.72;;
75073;SDS011;63652;51.526;5.080;2023-07-29T06:08:50;4.72;;;2.53;;
75073;SDS011;63652;51.526;5.080;2023-07-29T06:11:16;4.82;;;2.55;;
75073;SDS011;63652;51.526;5.080;2023-07-29T06:13:41;4.70;;;2.30;;
75073;SDS011;63652;51.526;5.080;2023-07-29T06:16:07;4.60;;;2.15;;
75073;SDS011;63652;51.526;5.080;2023-07-29T06:18:35;5.85;;;2.60;;
75073;SDS011;63652;51.526;5.080;2023-07-29T06:21:00;4.68;;;2.08;;
75073;SDS011;63652;51.526;5.080;2023-07-29T06:23:26;7.97;;;2.58;;
75073;SDS011;63652;51.526;5.080;2023-07-29T06:25:51;6.35;;;2.50;;
75073;SDS011;63652;51.526;5.080;2023-07-29T06:28:17;4.00;;;2.30;;
75073;SDS011;63652;51.526;5.080;2023-07-29T06:30:42;4.75;;;2.13;;
75073;SDS011;63652;51.526;5.080;2023-07-29T06:33:07;7.90;;;2.88;;
75073;SDS011;63652;51.526;5.080;2023-07-29T06:35:34;5.88;;;2.42;;
75073;SDS011;63652;51.526;5.080;2023-07-29T06:37:59;6.10;;;2.25;;
75073;SDS011;63652;51.526;5.080;2023-07-29T06:40:25;5.40;;;2.33;;
75073;SDS011;63652;51.526;5.080;2023-07-29T06:42:50;4.95;;;2.25;;
75073;SDS011;63652;51.526;5.080;2023-07-29T06:45:15;4.60;;;2.53;;
75073;SDS011;63652;51.526;5.080;2023-07-29T06:47:41;5.03;;;2.08;;
75073;SDS011;63652;51.526;5.080;2023-07-29T06:50:06;4.53;;;2.10;;
75073;SDS011;63652;51.526;5.080;2023-07-29T06:52:32;4.45;;;2.28;;
75073;SDS011;63652;51.526;5.080;2023-07-29T06:54:57;4.97;;;2.47;;
75073;SDS011;63652;51.526;5.080;2023-07-29T06:57:23;5.15;;;2.33;;
75073;SDS011;63652;51.526;5.080;2023-07-29T06:59:48;5.88;;;2.15;;
75073;SDS011;63652;51.526;5.080;2023-07-29T07:02:14;5.97;;;2.13;;
75073;SDS011;63652;51.526;5.080;2023-07-29T07:04:39;5.38;;;2.30;;
75073;SDS011;63652;51.526;5.080;2023-07-29T07:07:05;4.72;;;1.98;;
75073;SDS011;63652;51.526;5.080;2023-07-29T07:09:30;5.13;;;2.10;;
75073;SDS011;63652;51.526;5.080;2023-07-29T07:11:55;5.95;;;2.08;;
75073;SDS011;63652;51.526;5.080;2023-07-29T07:14:21;4.50;;;1.75;;
75073;SDS011;63652;51.526;5.080;2023-07-29T07:16:46;4.47;;;2.28;;
75073;SDS011;63652;51.526;5.080;2023-07-29T07:19:12;8.45;;;2.85;;
75073;SDS011;63652;51.526;5.080;2023-07-29T07:21:37;6.80;;;2.10;;
75073;SDS011;63652;51.526;5.080;2023-07-29T07:24:02;4.82;;;1.95;;
75073;SDS011;63652;51.526;5.080;2023-07-29T07:26:28;4.28;;;2.10;;
75073;SDS011;63652;51.526;5.080;2023-07-29T07:28:53;6.32;;;2.10;;
75073;SDS011;63652;51.526;5.080;2023-07-29T07:31:19;4.90;;;2.13;;
75073;SDS011;63652;51.526;5.080;2023-07-29T07:33:44;4.78;;;2.28;;
75073;SDS011;63652;51.526;5.080;2023-07-29T07:36:09;4.43;;;1.77;;
75073;SDS011;63652;51.526;5.080;2023-07-29T07:38:35;4.97;;;2.33;;
75073;SDS011;63652;51.526;5.080;2023-07-29T07:41:00;5.63;;;2.00;;
75073;SDS011;63652;51.526;5.080;2023-07-29T07:43:26;4.63;;;1.90;;
75073;SDS011;63652;51.526;5.080;2023-07-29T07:45:51;3.58;;;1.70;;
75073;SDS011;63652;51.526;5.080;2023-07-29T07:48:18;4.60;;;1.80;;
75073;SDS011;63652;51.526;5.080;2023-07-29T07:50:45;3.80;;;1.55;;
75073;SDS011;63652;51.526;5.080;2023-07-29T07:53:10;3.65;;;1.38;;
75073;SDS011;63652;51.526;5.080;2023-07-29T07:55:36;3.30;;;1.15;;
75073;SDS011;63652;51.526;5.080;2023-07-29T07:58:01;3.53;;;1.55;;
75073;SDS011;63652;51.526;5.080;2023-07-29T08:00:26;4.18;;;1.50;;
75073;SDS011;63652;51.526;5.080;2023-07-29T08:02:52;3.60;;;1.70;;
75073;SDS011;63652;51.526;5.080;2023-07-29T08:05:17;3.00;;;1.30;;
75073;SDS011;63652;51.526;5.080;2023-07-29T08:07:43;5.60;;;1.55;;
75073;SDS011;63652;51.526;5.080;2023-07-29T08:10:08;3.15;;;1.35;;
75073;SDS011;63652;51.526;5.080;2023-07-29T08:12:34;2.63;;;1.35;;
75073;SDS011;63652;51.526;5.080;2023-07-29T08:14:59;3.53;;;1.20;;
75073;SDS011;63652;51.526;5.080;2023-07-29T08:17:25;3.70;;;1.30;;
75073;SDS011;63652;51.526;5.080;2023-07-29T08:19:50;4.45;;;1.40;;
75073;SDS011;63652;51.526;5.080;2023-07-29T08:22:15;2.95;;;1.20;;
75073;SDS011;63652;51.526;5.080;2023-07-29T08:24:42;2.75;;;1.35;;
75073;SDS011;63652;51.526;5.080;2023-07-29T08:27:08;3.72;;;1.38;;
75073;SDS011;63652;51.526;5.080;2023-07-29T08:29:33;2.80;;;1.10;;
75073;SDS011;63652;51.526;5.080;2023-07-29T08:31:58;3.53;;;1.20;;
75073;SDS011;63652;51.526;5.080;2023-07-29T08:34:24;3.10;;;1.38;;
75073;SDS011;63652;51.526;5.080;2023-07-29T08:36:49;3.38;;;1.20;;
75073;SDS011;63652;51.526;5.080;2023-07-29T08:39:15;2.90;;;1.35;;
75073;SDS011;63652;51.526;5.080;2023-07-29T08:46:48;3.28;;;1.27;;
75073;SDS011;63652;51.526;5.080;2023-07-29T08:49:15;4.88;;;1.48;;
75073;SDS011;63652;51.526;5.080;2023-07-29T08:51:44;3.60;;;1.80;;
75073;SDS011;63652;51.526;5.080;2023-07-29T08:54:10;2.63;;;1.17;;
75073;SDS011;63652;51.526;5.080;2023-07-29T08:56:35;2.65;;;1.08;;
75073;SDS011;63652;51.526;5.080;2023-07-29T08:59:01;3.50;;;1.13;;
75073;SDS011;63652;51.526;5.080;2023-07-29T09:01:27;2.78;;;1.17;;
75073;SDS011;63652;51.526;5.080;2023-07-29T09:03:53;2.50;;;1.25;;
75073;SDS011;63652;51.526;5.080;2023-07-29T09:06:19;3.88;;;1.20;;
75073;SDS011;63652;51.526;5.080;2023-07-29T09:08:46;2.65;;;0.95;;
75073;SDS011;63652;51.526;5.080;2023-07-29T09:11:14;1.58;;;0.70;;
75073;SDS011;63652;51.526;5.080;2023-07-29T09:13:42;3.33;;;1.20;;
75073;SDS011;63652;51.526;5.080;2023-07-29T09:16:07;2.35;;;1.00;;
75073;SDS011;63652;51.526;5.080;2023-07-29T09:18:34;2.67;;;1.05;;
75073;SDS011;63652;51.526;5.080;2023-07-29T09:20:59;2.67;;;1.33;;
75073;SDS011;63652;51.526;5.080;2023-07-29T09:23:27;1.88;;;0.90;;
75073;SDS011;63652;51.526;5.080;2023-07-29T09:26:02;3.97;;;1.10;;
75073;SDS011;63652;51.526;5.080;2023-07-29T09:28:28;1.90;;;0.73;;
75073;SDS011;63652;51.526;5.080;2023-07-29T09:30:58;2.63;;;0.90;;
75073;SDS011;63652;51.526;5.080;2023-07-29T09:33:25;3.08;;;1.30;;
75073;SDS011;63652;51.526;5.080;2023-07-29T09:35:51;3.47;;;1.00;;
75073;SDS011;63652;51.526;5.080;2023-07-29T09:38:16;3.25;;;1.00;;
75073;SDS011;63652;51.526;5.080;2023-07-29T09:40:42;2.15;;;1.00;;
75073;SDS011;63652;51.526;5.080;2023-07-29T09:43:10;2.85;;;1.20;;
75073;SDS011;63652;51.526;5.080;2023-07-29T09:45:36;2.05;;;0.95;;
75073;SDS011;63652;51.526;5.080;2023-07-29T09:48:02;2.78;;;1.13;;
75073;SDS011;63652;51.526;5.080;2023-07-29T09:50:30;4.88;;;1.38;;
75073;SDS011;63652;51.526;5.080;2023-07-29T09:52:56;3.13;;;1.17;;
75073;SDS011;63652;51.526;5.080;2023-07-29T09:55:24;2.75;;;1.40;;
75073;SDS011;63652;51.526;5.080;2023-07-29T09:57:57;4.10;;;1.65;;
75073;SDS011;63652;51.526;5.080;2023-07-29T10:00:29;4.38;;;1.70;;
75073;SDS011;63652;51.526;5.080;2023-07-29T10:02:55;3.45;;;1.70;;
75073;SDS011;63652;51.526;5.080;2023-07-29T10:05:23;3.60;;;1.60;;
75073;SDS011;63652;51.526;5.080;2023-07-29T10:07:52;2.50;;;1.30;;
75073;SDS011;63652;51.526;5.080;2023-07-29T10:10:17;3.47;;;1.55;;
75073;SDS011;63652;51.526;5.080;2023-07-29T10:12:43;2.80;;;1.30;;
75073;SDS011;63652;51.526;5.080;2023-07-29T10:15:08;3.30;;;1.40;;
75073;SDS011;63652;51.526;5.080;2023-07-29T10:17:36;2.75;;;1.27;;
75073;SDS011;63652;51.526;5.080;2023-07-29T10:20:05;2.78;;;1.40;;
75073;SDS011;63652;51.526;5.080;2023-07-29T10:22:41;2.40;;;1.42;;
75073;SDS011;63652;51.526;5.080;2023-07-29T10:25:17;1.95;;;1.00;;
75073;SDS011;63652;51.526;5.080;2023-07-29T10:27:56;2.83;;;1.40;;
75073;SDS011;63652;51.526;5.080;2023-07-29T10:30:26;3.80;;;1.40;;
75073;SDS011;63652;51.526;5.080;2023-07-29T10:32:53;4.43;;;1.58;;
75073;SDS011;63652;51.526;5.080;2023-07-29T10:35:20;2.78;;;1.88;;
75073;SDS011;63652;51.526;5.080;2023-07-29T10:37:46;3.58;;;1.30;;
75073;SDS011;63652;51.526;5.080;2023-07-29T10:40:11;3.58;;;1.52;;
75073;SDS011;63652;51.526;5.080;2023-07-29T10:42:37;3.75;;;1.50;;
75073;SDS011;63652;51.526;5.080;2023-07-29T10:45:24;2.40;;;1.27;;
75073;SDS011;63652;51.526;5.080;2023-07-29T10:47:49;2.80;;;1.25;;
75073;SDS011;63652;51.526;5.080;2023-07-29T10:50:18;2.10;;;1.20;;
75073;SDS011;63652;51.526;5.080;2023-07-29T10:52:46;4.05;;;1.17;;
75073;SDS011;63652;51.526;5.080;2023-07-29T10:55:24;2.50;;;1.02;;
75073;SDS011;63652;51.526;5.080;2023-07-29T10:57:51;2.22;;;1.02;;
75073;SDS011;63652;51.526;5.080;2023-07-29T11:00:18;4.47;;;1.33;;
75073;SDS011;63652;51.526;5.080;2023-07-29T11:02:56;3.25;;;1.23;;
75073;SDS011;63652;51.526;5.080;2023-07-29T11:05:25;2.92;;;1.20;;
75073;SDS011;63652;51.526;5.080;2023-07-29T11:07:50;6.38;;;1.27;;
75073;SDS011;63652;51.526;5.080;2023-07-29T11:10:16;2.22;;;1.10;;
75073;SDS011;63652;51.526;5.080;2023-07-29T11:12:43;2.55;;;1.10;;
75073;SDS011;63652;51.526;5.080;2023-07-29T11:15:19;2.33;;;0.95;;
75073;SDS011;63652;51.526;5.080;2023-07-29T11:20:21;4.85;;;1.35;;
75073;SDS011;63652;51.526;5.080;2023-07-29T11:22:47;3.35;;;1.60;;
75073;SDS011;63652;51.526;5.080;2023-07-29T11:25:14;2.63;;;1.20;;
75073;SDS011;63652;51.526;5.080;2023-07-29T11:27:41;3.10;;;1.33;;
75073;SDS011;63652;51.526;5.080;2023-07-29T11:30:08;3.05;;;1.65;;
75073;SDS011;63652;51.526;5.080;2023-07-29T11:32:37;2.53;;;1.48;;
75073;SDS011;63652;51.526;5.080;2023-07-29T11:37:29;4.40;;;1.75;;
75073;SDS011;63652;51.526;5.080;2023-07-29T11:39:54;2.63;;;1.35;;
75073;SDS011;63652;51.526;5.080;2023-07-29T11:42:20;2.75;;;1.30;;
75073;SDS011;63652;51.526;5.080;2023-07-29T11:44:45;3.65;;;1.83;;
75073;SDS011;63652;51.526;5.080;2023-07-29T11:47:11;5.15;;;2.78;;
75073;SDS011;63652;51.526;5.080;2023-07-29T11:49:40;6.07;;;2.85;;
75073;SDS011;63652;51.526;5.080;2023-07-29T11:52:07;6.63;;;3.00;;
75073;SDS011;63652;51.526;5.080;2023-07-29T11:54:37;5.68;;;3.28;;
75073;SDS011;63652;51.526;5.080;2023-07-29T11:57:06;7.25;;;3.42;;
75073;SDS011;63652;51.526;5.080;2023-07-29T11:59:35;9.00;;;4.53;;
75073;SDS011;63652;51.526;5.080;2023-07-29T12:02:02;8.90;;;3.90;;
75073;SDS011;63652;51.526;5.080;2023-07-29T12:04:31;2.83;;;0.93;;
75073;SDS011;63652;51.526;5.080;2023-07-29T12:06:57;2.35;;;1.25;;
75073;SDS011;63652;51.526;5.080;2023-07-29T12:09:23;3.30;;;0.70;;
75073;SDS011;63652;51.526;5.080;2023-07-29T12:11:49;4.13;;;1.00;;
75073;SDS011;63652;51.526;5.080;2023-07-29T12:14:16;8.05;;;1.90;;
75073;SDS011;63652;51.526;5.080;2023-07-29T12:16:42;10.23;;;3.30;;
75073;SDS011;63652;51.526;5.080;2023-07-29T12:19:08;6.70;;;3.50;;
75073;SDS011;63652;51.526;5.080;2023-07-29T12:21:33;10.98;;;4.43;;
75073;SDS011;63652;51.526;5.080;2023-07-29T12:23:59;9.75;;;4.45;;
75073;SDS011;63652;51.526;5.080;2023-07-29T12:26:28;9.95;;;4.07;;
75073;SDS011;63652;51.526;5.080;2023-07-29T12:28:54;7.32;;;4.32;;
75073;SDS011;63652;51.526;5.080;2023-07-29T12:31:21;5.00;;;3.10;;
75073;SDS011;63652;51.526;5.080;2023-07-29T12:33:47;5.28;;;3.25;;
75073;SDS011;63652;51.526;5.080;2023-07-29T12:36:12;4.32;;;2.95;;
75073;SDS011;63652;51.526;5.080;2023-07-29T12:38:37;4.82;;;3.15;;
75073;SDS011;63652;51.526;5.080;2023-07-29T12:41:03;4.05;;;2.90;;
75073;SDS011;63652;51.526;5.080;2023-07-29T12:43:28;6.65;;;3.60;;
75073;SDS011;63652;51.526;5.080;2023-07-29T12:45:54;5.22;;;3.58;;
75073;SDS011;63652;51.526;5.080;2023-07-29T12:48:19;6.45;;;3.78;;
75073;SDS011;63652;51.526;5.080;2023-07-29T12:50:45;7.05;;;3.90;;
75073;SDS011;63652;51.526;5.080;2023-07-29T12:53:11;5.47;;;3.70;;
75073;SDS011;63652;51.526;5.080;2023-07-29T12:55:36;6.47;;;3.97;;
75073;SDS011;63652;51.526;5.080;2023-07-29T12:58:02;6.10;;;3.75;;
75073;SDS011;63652;51.526;5.080;2023-07-29T13:00:27;5.25;;;3.97;;
75073;SDS011;63652;51.526;5.080;2023-07-29T13:02:53;6.65;;;3.78;;
75073;SDS011;63652;51.526;5.080;2023-07-29T13:05:27;5.53;;;3.72;;
75073;SDS011;63652;51.526;5.080;2023-07-29T13:07:55;5.18;;;2.72;;
75073;SDS011;63652;51.526;5.080;2023-07-29T13:10:21;3.58;;;2.30;;
75073;SDS011;63652;51.526;5.080;2023-07-29T13:12:46;4.90;;;2.30;;
75073;SDS011;63652;51.526;5.080;2023-07-29T13:15:11;3.50;;;2.22;;
75073;SDS011;63652;51.526;5.080;2023-07-29T13:17:37;3.22;;;1.88;;
75073;SDS011;63652;51.526;5.080;2023-07-29T13:20:03;3.78;;;2.03;;
75073;SDS011;63652;51.526;5.080;2023-07-29T13:22:28;3.65;;;1.88;;
75073;SDS011;63652;51.526;5.080;2023-07-29T13:24:54;2.60;;;1.75;;
75073;SDS011;63652;51.526;5.080;2023-07-29T13:27:19;2.47;;;1.67;;
75073;SDS011;63652;51.526;5.080;2023-07-29T13:29:45;2.72;;;1.27;;
75073;SDS011;63652;51.526;5.080;2023-07-29T13:32:11;2.70;;;1.30;;
75073;SDS011;63652;51.526;5.080;2023-07-29T13:34:37;2.63;;;1.30;;
75073;SDS011;63652;51.526;5.080;2023-07-29T13:37:05;2.80;;;1.23;;
75073;SDS011;63652;51.526;5.080;2023-07-29T13:39:31;1.95;;;1.13;;
75073;SDS011;63652;51.526;5.080;2023-07-29T13:41:56;2.53;;;1.13;;
75073;SDS011;63652;51.526;5.080;2023-07-29T13:44:21;2.45;;;1.48;;
75073;SDS011;63652;51.526;5.080;2023-07-29T13:46:47;2.95;;;1.30;;
75073;SDS011;63652;51.526;5.080;2023-07-29T13:49:12;4.05;;;1.80;;
75073;SDS011;63652;51.526;5.080;2023-07-29T13:51:38;4.03;;;1.77;;
75073;SDS011;63652;51.526;5.080;2023-07-29T13:54:03;3.05;;;1.50;;
75073;SDS011;63652;51.526;5.080;2023-07-29T13:56:29;3.13;;;1.50;;
75073;SDS011;63652;51.526;5.080;2023-07-29T13:58:54;3.53;;;1.90;;
75073;SDS011;63652;51.526;5.080;2023-07-29T14:01:19;2.55;;;1.35;;
75073;SDS011;63652;51.526;5.080;2023-07-29T14:03:45;2.67;;;1.55;;
75073;SDS011;63652;51.526;5.080;2023-07-29T14:06:10;2.85;;;1.70;;
75073;SDS011;63652;51.526;5.080;2023-07-29T14:08:36;2.38;;;1.27;;
75073;SDS011;63652;51.526;5.080;2023-07-29T14:11:01;2.58;;;1.50;;
75073;SDS011;63652;51.526;5.080;2023-07-29T14:13:26;4.43;;;1.85;;
75073;SDS011;63652;51.526;5.080;2023-07-29T14:15:52;3.50;;;2.03;;
75073;SDS011;63652;51.526;5.080;2023-07-29T14:18:17;2.80;;;1.80;;
75073;SDS011;63652;51.526;5.080;2023-07-29T14:20:43;3.42;;;1.75;;
75073;SDS011;63652;51.526;5.080;2023-07-29T14:23:08;4.25;;;2.13;;
75073;SDS011;63652;51.526;5.080;2023-07-29T14:25:33;3.30;;;2.33;;
75073;SDS011;63652;51.526;5.080;2023-07-29T14:27:59;4.65;;;2.40;;
75073;SDS011;63652;51.526;5.080;2023-07-29T14:30:24;3.83;;;2.20;;
75073;SDS011;63652;51.526;5.080;2023-07-29T14:32:49;4.05;;;1.70;;
75073;SDS011;63652;51.526;5.080;2023-07-29T14:35:15;2.90;;;2.25;;
75073;SDS011;63652;51.526;5.080;2023-07-29T14:37:40;3.72;;;1.77;;
75073;SDS011;63652;51.526;5.080;2023-07-29T14:40:06;3.75;;;2.30;;
75073;SDS011;63652;51.526;5.080;2023-07-29T14:42:32;4.10;;;2.25;;
75073;SDS011;63652;51.526;5.080;2023-07-29T14:44:58;3.17;;;1.90;;
75073;SDS011;63652;51.526;5.080;2023-07-29T14:47:23;3.70;;;2.42;;
75073;SDS011;63652;51.526;5.080;2023-07-29T14:49:48;3.53;;;2.10;;
75073;SDS011;63652;51.526;5.080;2023-07-29T14:52:14;3.47;;;1.80;;
75073;SDS011;63652;51.526;5.080;2023-07-29T14:54:39;2.38;;;1.63;;
75073;SDS011;63652;51.526;5.080;2023-07-29T14:57:05;3.83;;;1.77;;
75073;SDS011;63652;51.526;5.080;2023-07-29T14:59:31;4.22;;;1.88;;